Terminal Aerodrome Forecast
Issued by NWS

Home | Current Version | Previous Version | Text Only | Print | Product List | Glossary On
Versions: 1 2 3 4 5 6 7 8 9 10 11 12 13 14 15 16 17 18
098
FTUS44 KBMX 202322
TAFANB
TAF
KANB 202322Z 2100/2124 12004KT P6SM BKN250
     FM210600 07004KT P6SM OVC100
     FM211500 13006KT P6SM OVC050
     FM211900 13008KT 5SM -RA OVC025=

USA.gov is the U.S. government's official web portal to all federal, state and local government web resources and services.